sensor_id;sensor_type;location;lat;lon;timestamp;temperature;humidity
21335;DHT22;10826;52.536;13.432;2022-11-03T00:04:11;13.20;45.10
21335;DHT22;10826;52.536;13.432;2022-11-03T00:06:39;13.20;45.20
21335;DHT22;10826;52.536;13.432;2022-11-03T00:09:08;13.10;45.40
21335;DHT22;10826;52.536;13.432;2022-11-03T00:11:37;13.10;45.50
21335;DHT22;10826;52.536;13.432;2022-11-03T00:14:05;13.10;45.60
21335;DHT22;10826;52.536;13.432;2022-11-03T00:16:32;13.10;45.70
21335;DHT22;10826;52.536;13.432;2022-11-03T00:18:58;13.10;46.60
21335;DHT22;10826;52.536;13.432;2022-11-03T00:21:24;13.10;46.00
21335;DHT22;10826;52.536;13.432;2022-11-03T00:23:50;13.00;46.00
21335;DHT22;10826;52.536;13.432;2022-11-03T00:26:22;13.00;46.10
21335;DHT22;10826;52.536;13.432;2022-11-03T00:28:54;13.00;46.30
21335;DHT22;10826;52.536;13.432;2022-11-03T00:31:24;12.90;46.40
21335;DHT22;10826;52.536;13.432;2022-11-03T00:33:54;12.90;46.50
21335;DHT22;10826;52.536;13.432;2022-11-03T00:36:34;12.90;46.70
21335;DHT22;10826;52.536;13.432;2022-11-03T00:39:03;12.80;47.20
21335;DHT22;10826;52.536;13.432;2022-11-03T00:41:30;12.80;46.70
21335;DHT22;10826;52.536;13.432;2022-11-03T00:43:56;12.80;46.90
21335;DHT22;10826;52.536;13.432;2022-11-03T00:46:23;12.80;47.00
21335;DHT22;10826;52.536;13.432;2022-11-03T00:48:50;12.80;47.10
21335;DHT22;10826;52.536;13.432;2022-11-03T00:51:17;12.70;47.10
21335;DHT22;10826;52.536;13.432;2022-11-03T00:53:54;12.70;47.30
21335;DHT22;10826;52.536;13.432;2022-11-03T00:56:33;12.70;47.40
21335;DHT22;10826;52.536;13.432;2022-11-03T00:59:01;12.70;47.50
21335;DHT22;10826;52.536;13.432;2022-11-03T01:01:34;12.70;47.50
21335;DHT22;10826;52.536;13.432;2022-11-03T01:04:07;12.70;47.50
21335;DHT22;10826;52.536;13.432;2022-11-03T01:06:55;12.70;47.60
21335;DHT22;10826;52.536;13.432;2022-11-03T01:12:04;12.60;47.60
21335;DHT22;10826;52.536;13.432;2022-11-03T01:14:35;12.60;47.70
21335;DHT22;10826;52.536;13.432;2022-11-03T01:17:15;12.60;48.50
21335;DHT22;10826;52.536;13.432;2022-11-03T01:19:49;12.60;47.90
21335;DHT22;10826;52.536;13.432;2022-11-03T01:22:16;12.50;48.10
21335;DHT22;10826;52.536;13.432;2022-11-03T01:24:43;12.50;48.20
21335;DHT22;10826;52.536;13.432;2022-11-03T01:27:11;12.50;48.30
21335;DHT22;10826;52.536;13.432;2022-11-03T01:29:39;12.50;48.40
21335;DHT22;10826;52.536;13.432;2022-11-03T01:32:05;12.50;48.60
21335;DHT22;10826;52.536;13.432;2022-11-03T01:34:32;12.40;48.50
21335;DHT22;10826;52.536;13.432;2022-11-03T01:36:59;12.40;48.70
21335;DHT22;10826;52.536;13.432;2022-11-03T01:39:25;12.40;48.70
21335;DHT22;10826;52.536;13.432;2022-11-03T01:41:51;12.40;48.90
21335;DHT22;10826;52.536;13.432;2022-11-03T01:47:06;12.30;49.10
21335;DHT22;10826;52.536;13.432;2022-11-03T01:52:31;12.30;49.20
21335;DHT22;10826;52.536;13.432;2022-11-03T01:55:06;12.30;49.20
21335;DHT22;10826;52.536;13.432;2022-11-03T01:57:43;12.30;49.30
21335;DHT22;10826;52.536;13.432;2022-11-03T02:00:16;12.30;49.30
21335;DHT22;10826;52.536;13.432;2022-11-03T02:02:42;12.30;49.40
21335;DHT22;10826;52.536;13.432;2022-11-03T02:05:10;12.30;49.50
21335;DHT22;10826;52.536;13.432;2022-11-03T02:07:47;12.30;49.60
21335;DHT22;10826;52.536;13.432;2022-11-03T02:10:18;12.20;49.50
21335;DHT22;10826;52.536;13.432;2022-11-03T02:12:46;12.20;49.70
21335;DHT22;10826;52.536;13.432;2022-11-03T02:15:14;12.20;49.70
21335;DHT22;10826;52.536;13.432;2022-11-03T02:17:44;12.20;49.70
21335;DHT22;10826;52.536;13.432;2022-11-03T02:20:16;12.20;49.80
21335;DHT22;10826;52.536;13.432;2022-11-03T02:25:56;12.20;49.70
21335;DHT22;10826;52.536;13.432;2022-11-03T02:28:27;12.10;49.70
21335;DHT22;10826;52.536;13.432;2022-11-03T02:31:02;12.10;49.90
21335;DHT22;10826;52.536;13.432;2022-11-03T02:36:19;12.10;50.00
21335;DHT22;10826;52.536;13.432;2022-11-03T02:39:19;12.00;50.00
21335;DHT22;10826;52.536;13.432;2022-11-03T02:41:51;12.00;50.00
21335;DHT22;10826;52.536;13.432;2022-11-03T02:44:21;12.00;50.00
21335;DHT22;10826;52.536;13.432;2022-11-03T02:46:53;12.00;50.10
21335;DHT22;10826;52.536;13.432;2022-11-03T02:49:26;12.00;50.00
21335;DHT22;10826;52.536;13.432;2022-11-03T02:52:00;12.00;50.10
21335;DHT22;10826;52.536;13.432;2022-11-03T02:54:41;12.00;50.00
21335;DHT22;10826;52.536;13.432;2022-11-03T02:57:17;12.00;50.00
21335;DHT22;10826;52.536;13.432;2022-11-03T02:59:58;12.00;50.10
21335;DHT22;10826;52.536;13.432;2022-11-03T03:02:38;12.00;50.00
21335;DHT22;10826;52.536;13.432;2022-11-03T03:05:25;12.00;50.00
21335;DHT22;10826;52.536;13.432;2022-11-03T03:08:00;12.00;50.00
21335;DHT22;10826;52.536;13.432;2022-11-03T03:10:35;12.00;50.10
21335;DHT22;10826;52.536;13.432;2022-11-03T03:13:14;12.00;49.80
21335;DHT22;10826;52.536;13.432;2022-11-03T03:16:15;12.00;49.80
21335;DHT22;10826;52.536;13.432;2022-11-03T03:19:17;12.00;49.80
21335;DHT22;10826;52.536;13.432;2022-11-03T03:21:52;12.00;49.70
21335;DHT22;10826;52.536;13.432;2022-11-03T03:24:41;12.00;49.70
21335;DHT22;10826;52.536;13.432;2022-11-03T03:27:16;12.00;49.70
21335;DHT22;10826;52.536;13.432;2022-11-03T03:29:50;12.00;49.70
21335;DHT22;10826;52.536;13.432;2022-11-03T03:32:22;12.00;49.70
21335;DHT22;10826;52.536;13.432;2022-11-03T03:34:52;12.10;49.70
21335;DHT22;10826;52.536;13.432;2022-11-03T03:37:22;12.10;49.70
21335;DHT22;10826;52.536;13.432;2022-11-03T03:39:53;12.10;49.60
21335;DHT22;10826;52.536;13.432;2022-11-03T03:42:24;12.10;49.70
21335;DHT22;10826;52.536;13.432;2022-11-03T03:44:53;12.10;49.60
21335;DHT22;10826;52.536;13.432;2022-11-03T03:47:28;12.10;49.60
21335;DHT22;10826;52.536;13.432;2022-11-03T03:49:56;12.10;49.60
21335;DHT22;10826;52.536;13.432;2022-11-03T03:52:22;12.10;49.70
21335;DHT22;10826;52.536;13.432;2022-11-03T03:54:49;12.10;49.70
21335;DHT22;10826;52.536;13.432;2022-11-03T03:57:18;12.00;49.50
21335;DHT22;10826;52.536;13.432;2022-11-03T03:59:46;12.10;49.60
21335;DHT22;10826;52.536;13.432;2022-11-03T04:02:13;12.00;49.40
21335;DHT22;10826;52.536;13.432;2022-11-03T04:04:39;12.00;49.40
21335;DHT22;10826;52.536;13.432;2022-11-03T04:07:05;12.00;49.60
21335;DHT22;10826;52.536;13.432;2022-11-03T04:09:50;12.00;49.60
21335;DHT22;10826;52.536;13.432;2022-11-03T04:12:16;11.90;49.60
21335;DHT22;10826;52.536;13.432;2022-11-03T04:15:01;11.90;49.80
21335;DHT22;10826;52.536;13.432;2022-11-03T04:17:47;11.90;49.80
21335;DHT22;10826;52.536;13.432;2022-11-03T04:20:32;11.80;49.70
21335;DHT22;10826;52.536;13.432;2022-11-03T04:23:17;11.80;49.80
21335;DHT22;10826;52.536;13.432;2022-11-03T04:25:47;11.70;49.90
21335;DHT22;10826;52.536;13.432;2022-11-03T04:28:16;11.70;50.00
21335;DHT22;10826;52.536;13.432;2022-11-03T04:30:42;11.70;50.10
21335;DHT22;10826;52.536;13.432;2022-11-03T04:33:21;11.60;50.10
21335;DHT22;10826;52.536;13.432;2022-11-03T04:35:47;11.60;50.10
21335;DHT22;10826;52.536;13.432;2022-11-03T04:40:54;11.60;50.40
21335;DHT22;10826;52.536;13.432;2022-11-03T04:43:28;11.50;50.50
21335;DHT22;10826;52.536;13.432;2022-11-03T04:45:57;11.50;50.60
21335;DHT22;10826;52.536;13.432;2022-11-03T04:48:24;11.50;50.70
21335;DHT22;10826;52.536;13.432;2022-11-03T04:50:55;11.50;50.70
21335;DHT22;10826;52.536;13.432;2022-11-03T04:53:28;11.50;50.70
21335;DHT22;10826;52.536;13.432;2022-11-03T04:55:57;11.40;50.70
21335;DHT22;10826;52.536;13.432;2022-11-03T04:58:27;11.40;50.70
21335;DHT22;10826;52.536;13.432;2022-11-03T05:00:58;11.40;50.70
21335;DHT22;10826;52.536;13.432;2022-11-03T05:03:31;11.40;50.80
21335;DHT22;10826;52.536;13.432;2022-11-03T05:06:01;11.30;50.70
21335;DHT22;10826;52.536;13.432;2022-11-03T05:08:35;11.40;50.80
21335;DHT22;10826;52.536;13.432;2022-11-03T05:11:23;11.40;50.90
21335;DHT22;10826;52.536;13.432;2022-11-03T05:13:53;11.30;50.80
21335;DHT22;10826;52.536;13.432;2022-11-03T05:16:24;11.30;50.90
21335;DHT22;10826;52.536;13.432;2022-11-03T05:18:51;11.30;51.00
21335;DHT22;10826;52.536;13.432;2022-11-03T05:21:21;11.30;51.00
21335;DHT22;10826;52.536;13.432;2022-11-03T05:24:00;11.30;51.00
21335;DHT22;10826;52.536;13.432;2022-11-03T05:26:33;11.30;51.00
21335;DHT22;10826;52.536;13.432;2022-11-03T05:31:46;11.30;50.90
21335;DHT22;10826;52.536;13.432;2022-11-03T05:34:27;11.30;51.10
21335;DHT22;10826;52.536;13.432;2022-11-03T05:36:59;11.30;51.40
21335;DHT22;10826;52.536;13.432;2022-11-03T05:39:43;11.30;51.70
21335;DHT22;10826;52.536;13.432;2022-11-03T05:44:54;11.30;51.80
21335;DHT22;10826;52.536;13.432;2022-11-03T05:47:23;11.20;51.90
21335;DHT22;10826;52.536;13.432;2022-11-03T05:50:14;11.30;52.00
21335;DHT22;10826;52.536;13.432;2022-11-03T05:52:46;11.20;52.00
21335;DHT22;10826;52.536;13.432;2022-11-03T05:57:59;11.20;52.00
21335;DHT22;10826;52.536;13.432;2022-11-03T06:00:39;11.20;52.10
21335;DHT22;10826;52.536;13.432;2022-11-03T06:03:08;11.20;52.10
21335;DHT22;10826;52.536;13.432;2022-11-03T06:05:41;11.20;52.10
21335;DHT22;10826;52.536;13.432;2022-11-03T06:08:21;11.20;51.90
21335;DHT22;10826;52.536;13.432;2022-11-03T06:10:54;11.20;51.70
21335;DHT22;10826;52.536;13.432;2022-11-03T06:13:32;11.20;51.70
21335;DHT22;10826;52.536;13.432;2022-11-03T06:16:08;11.20;51.60
21335;DHT22;10826;52.536;13.432;2022-11-03T06:18:59;11.20;51.60
21335;DHT22;10826;52.536;13.432;2022-11-03T06:21:28;11.20;51.60
21335;DHT22;10826;52.536;13.432;2022-11-03T06:23:55;11.20;51.50
21335;DHT22;10826;52.536;13.432;2022-11-03T06:26:26;11.20;51.50
21335;DHT22;10826;52.536;13.432;2022-11-03T06:28:53;11.20;51.50
21335;DHT22;10826;52.536;13.432;2022-11-03T06:33:56;11.20;51.60
21335;DHT22;10826;52.536;13.432;2022-11-03T06:36:26;11.20;51.50
21335;DHT22;10826;52.536;13.432;2022-11-03T06:39:03;11.20;51.50
21335;DHT22;10826;52.536;13.432;2022-11-03T06:41:45;11.20;51.50
21335;DHT22;10826;52.536;13.432;2022-11-03T06:44:28;11.20;51.40
21335;DHT22;10826;52.536;13.432;2022-11-03T06:46:57;11.20;51.30
21335;DHT22;10826;52.536;13.432;2022-11-03T06:49:32;11.20;51.40
21335;DHT22;10826;52.536;13.432;2022-11-03T06:52:23;11.20;51.30
21335;DHT22;10826;52.536;13.432;2022-11-03T06:57:34;11.20;51.20
21335;DHT22;10826;52.536;13.432;2022-11-03T07:05:42;11.30;51.30
21335;DHT22;10826;52.536;13.432;2022-11-03T07:08:21;11.30;51.50
21335;DHT22;10826;52.536;13.432;2022-11-03T07:11:19;11.30;51.60
21335;DHT22;10826;52.536;13.432;2022-11-03T07:13:47;11.30;51.60
21335;DHT22;10826;52.536;13.432;2022-11-03T07:16:26;11.30;51.60
21335;DHT22;10826;52.536;13.432;2022-11-03T07:18:59;11.30;51.60
21335;DHT22;10826;52.536;13.432;2022-11-03T07:21:38;11.30;51.60
21335;DHT22;10826;52.536;13.432;2022-11-03T07:24:38;11.40;51.50
21335;DHT22;10826;52.536;13.432;2022-11-03T07:29:45;11.40;51.40
21335;DHT22;10826;52.536;13.432;2022-11-03T07:32:21;11.50;51.40
21335;DHT22;10826;52.536;13.432;2022-11-03T07:34:51;11.50;51.30
21335;DHT22;10826;52.536;13.432;2022-11-03T07:37:20;11.60;51.20
21335;DHT22;10826;52.536;13.432;2022-11-03T07:39:51;11.60;51.20
21335;DHT22;10826;52.536;13.432;2022-11-03T07:42:23;11.70;51.20
21335;DHT22;10826;52.536;13.432;2022-11-03T07:44:51;11.80;51.10
21335;DHT22;10826;52.536;13.432;2022-11-03T07:47:22;11.80;51.00
21335;DHT22;10826;52.536;13.432;2022-11-03T07:49:55;11.90;51.00
21335;DHT22;10826;52.536;13.432;2022-11-03T07:52:25;11.90;50.80
21335;DHT22;10826;52.536;13.432;2022-11-03T07:54:54;12.00;50.60
21335;DHT22;10826;52.536;13.432;2022-11-03T07:57:25;12.10;50.50
21335;DHT22;10826;52.536;13.432;2022-11-03T08:00:00;12.20;50.40
21335;DHT22;10826;52.536;13.432;2022-11-03T08:02:50;12.20;50.20
21335;DHT22;10826;52.536;13.432;2022-11-03T08:05:22;12.30;50.00
21335;DHT22;10826;52.536;13.432;2022-11-03T08:07:48;12.40;50.00
21335;DHT22;10826;52.536;13.432;2022-11-03T08:10:14;12.40;49.60
21335;DHT22;10826;52.536;13.432;2022-11-03T08:12:40;12.50;49.40
21335;DHT22;10826;52.536;13.432;2022-11-03T08:15:06;12.50;49.40
21335;DHT22;10826;52.536;13.432;2022-11-03T08:17:32;12.60;49.20
21335;DHT22;10826;52.536;13.432;2022-11-03T08:19:58;12.60;49.00
21335;DHT22;10826;52.536;13.432;2022-11-03T08:22:24;12.70;48.90
21335;DHT22;10826;52.536;13.432;2022-11-03T08:24:51;12.70;48.70
21335;DHT22;10826;52.536;13.432;2022-11-03T08:27:17;12.70;48.60
21335;DHT22;10826;52.536;13.432;2022-11-03T08:29:44;12.70;48.60
21335;DHT22;10826;52.536;13.432;2022-11-03T08:32:09;12.80;48.40
21335;DHT22;10826;52.536;13.432;2022-11-03T08:34:35;12.80;48.40
21335;DHT22;10826;52.536;13.432;2022-11-03T08:37:02;12.90;48.30
21335;DHT22;10826;52.536;13.432;2022-11-03T08:39:28;12.90;48.20
21335;DHT22;10826;52.536;13.432;2022-11-03T08:41:55;13.00;48.00
21335;DHT22;10826;52.536;13.432;2022-11-03T08:44:21;13.00;47.90
21335;DHT22;10826;52.536;13.432;2022-11-03T08:46:47;13.10;48.00
21335;DHT22;10826;52.536;13.432;2022-11-03T08:49:13;13.10;48.00
21335;DHT22;10826;52.536;13.432;2022-11-03T08:51:39;13.10;47.80
21335;DHT22;10826;52.536;13.432;2022-11-03T08:54:05;13.20;47.70
21335;DHT22;10826;52.536;13.432;2022-11-03T08:56:31;13.20;47.50
21335;DHT22;10826;52.536;13.432;2022-11-03T08:58:57;13.20;47.30
21335;DHT22;10826;52.536;13.432;2022-11-03T09:01:23;13.20;47.40
21335;DHT22;10826;52.536;13.432;2022-11-03T09:03:49;13.30;47.20
21335;DHT22;10826;52.536;13.432;2022-11-03T09:06:14;13.30;47.20
21335;DHT22;10826;52.536;13.432;2022-11-03T09:08:40;13.30;47.20
21335;DHT22;10826;52.536;13.432;2022-11-03T09:11:06;13.40;47.20
21335;DHT22;10826;52.536;13.432;2022-11-03T09:13:32;13.50;46.90
21335;DHT22;10826;52.536;13.432;2022-11-03T09:15:58;13.50;46.70
21335;DHT22;10826;52.536;13.432;2022-11-03T09:18:24;13.60;46.60
21335;DHT22;10826;52.536;13.432;2022-11-03T09:20:50;13.60;46.30
21335;DHT22;10826;52.536;13.432;2022-11-03T09:23:16;13.60;46.30
21335;DHT22;10826;52.536;13.432;2022-11-03T09:25:42;13.70;46.10
21335;DHT22;10826;52.536;13.432;2022-11-03T09:28:07;13.70;46.00
21335;DHT22;10826;52.536;13.432;2022-11-03T09:30:33;13.80;45.90
21335;DHT22;10826;52.536;13.432;2022-11-03T09:32:59;13.80;45.70
21335;DHT22;10826;52.536;13.432;2022-11-03T09:35:25;13.90;45.80
21335;DHT22;10826;52.536;13.432;2022-11-03T09:37:52;14.00;45.50
21335;DHT22;10826;52.536;13.432;2022-11-03T09:40:18;14.00;45.60
21335;DHT22;10826;52.536;13.432;2022-11-03T09:42:46;14.00;45.30
21335;DHT22;10826;52.536;13.432;2022-11-03T09:45:12;14.10;45.30
21335;DHT22;10826;52.536;13.432;2022-11-03T09:47:42;14.20;45.20
21335;DHT22;10826;52.536;13.432;2022-11-03T09:50:16;14.30;45.00
21335;DHT22;10826;52.536;13.432;2022-11-03T09:52:44;14.30;44.80
21335;DHT22;10826;52.536;13.432;2022-11-03T09:55:16;14.40;44.30
21335;DHT22;10826;52.536;13.432;2022-11-03T09:57:46;14.40;44.20
21335;DHT22;10826;52.536;13.432;2022-11-03T10:00:18;14.50;44.00
21335;DHT22;10826;52.536;13.432;2022-11-03T10:02:46;14.60;44.10
21335;DHT22;10826;52.536;13.432;2022-11-03T10:05:18;14.60;44.10
21335;DHT22;10826;52.536;13.432;2022-11-03T10:07:49;14.60;43.90
21335;DHT22;10826;52.536;13.432;2022-11-03T10:10:40;14.70;43.70
21335;DHT22;10826;52.536;13.432;2022-11-03T10:13:06;14.80;43.60
21335;DHT22;10826;52.536;13.432;2022-11-03T10:15:38;14.90;43.20
21335;DHT22;10826;52.536;13.432;2022-11-03T10:18:05;15.00;43.20
21335;DHT22;10826;52.536;13.432;2022-11-03T10:20:32;15.00;43.20
21335;DHT22;10826;52.536;13.432;2022-11-03T10:22:58;15.10;43.30
21335;DHT22;10826;52.536;13.432;2022-11-03T10:25:35;15.10;43.20
21335;DHT22;10826;52.536;13.432;2022-11-03T10:33:53;15.40;42.60
21335;DHT22;10826;52.536;13.432;2022-11-03T10:36:22;15.50;42.70
21335;DHT22;10826;52.536;13.432;2022-11-03T10:38:50;15.50;42.60
21335;DHT22;10826;52.536;13.432;2022-11-03T10:44:04;15.70;42.30
21335;DHT22;10826;52.536;13.432;2022-11-03T10:46:37;15.70;42.20
21335;DHT22;10826;52.536;13.432;2022-11-03T10:51:42;15.80;42.40
21335;DHT22;10826;52.536;13.432;2022-11-03T10:54:15;15.90;42.30
21335;DHT22;10826;52.536;13.432;2022-11-03T10:56:43;15.90;42.10
21335;DHT22;10826;52.536;13.432;2022-11-03T10:59:23;16.00;42.00
21335;DHT22;10826;52.536;13.432;2022-11-03T11:01:59;16.10;42.00
21335;DHT22;10826;52.536;13.432;2022-11-03T11:04:26;16.10;41.90
21335;DHT22;10826;52.536;13.432;2022-11-03T11:06:52;16.20;41.90
21335;DHT22;10826;52.536;13.432;2022-11-03T11:09:23;16.30;41.70
21335;DHT22;10826;52.536;13.432;2022-11-03T11:12:13;16.40;41.50
21335;DHT22;10826;52.536;13.432;2022-11-03T11:14:55;16.40;41.20
21335;DHT22;10826;52.536;13.432;2022-11-03T11:17:46;16.50;41.30
21335;DHT22;10826;52.536;13.432;2022-11-03T11:22:49;16.60;40.90
21335;DHT22;10826;52.536;13.432;2022-11-03T11:25:19;16.60;40.90
21335;DHT22;10826;52.536;13.432;2022-11-03T11:30:54;16.70;40.90
21335;DHT22;10826;52.536;13.432;2022-11-03T11:33:13;16.70;40.80
21335;DHT22;10826;52.536;13.432;2022-11-03T11:38:53;16.80;40.80
21335;DHT22;10826;52.536;13.432;2022-11-03T11:52:55;17.10;40.40
21335;DHT22;10826;52.536;13.432;2022-11-03T11:58:25;17.10;40.20
21335;DHT22;10826;52.536;13.432;2022-11-03T12:01:05;17.20;40.10
21335;DHT22;10826;52.536;13.432;2022-11-03T12:04:28;17.10;40.00
21335;DHT22;10826;52.536;13.432;2022-11-03T12:06:57;17.20;40.00
21335;DHT22;10826;52.536;13.432;2022-11-03T12:09:27;17.20;40.40
21335;DHT22;10826;52.536;13.432;2022-11-03T12:11:55;17.20;40.90
21335;DHT22;10826;52.536;13.432;2022-11-03T12:14:37;17.20;40.70
21335;DHT22;10826;52.536;13.432;2022-11-03T12:19:49;17.20;40.30
21335;DHT22;10826;52.536;13.432;2022-11-03T12:25:01;17.30;40.20
21335;DHT22;10826;52.536;13.432;2022-11-03T12:29:56;17.20;39.80
21335;DHT22;10826;52.536;13.432;2022-11-03T12:32:24;17.20;39.90
21335;DHT22;10826;52.536;13.432;2022-11-03T12:34:50;17.20;39.80
21335;DHT22;10826;52.536;13.432;2022-11-03T12:37:18;17.30;39.80
21335;DHT22;10826;52.536;13.432;2022-11-03T12:39:44;17.30;39.80
21335;DHT22;10826;52.536;13.432;2022-11-03T12:42:10;17.30;39.70
21335;DHT22;10826;52.536;13.432;2022-11-03T12:44:36;17.30;39.70
21335;DHT22;10826;52.536;13.432;2022-11-03T12:47:02;17.30;39.40
21335;DHT22;10826;52.536;13.432;2022-11-03T12:49:28;17.30;39.20
21335;DHT22;10826;52.536;13.432;2022-11-03T12:51:55;17.30;39.10
21335;DHT22;10826;52.536;13.432;2022-11-03T12:54:20;17.40;39.00
21335;DHT22;10826;52.536;13.432;2022-11-03T12:56:46;17.40;38.90
21335;DHT22;10826;52.536;13.432;2022-11-03T12:59:12;17.40;39.00
21335;DHT22;10826;52.536;13.432;2022-11-03T13:01:38;17.40;38.90
21335;DHT22;10826;52.536;13.432;2022-11-03T13:04:04;17.40;38.70
21335;DHT22;10826;52.536;13.432;2022-11-03T13:06:31;17.40;38.90
21335;DHT22;10826;52.536;13.432;2022-11-03T13:08:57;17.40;38.70
21335;DHT22;10826;52.536;13.432;2022-11-03T13:11:23;17.40;38.70
21335;DHT22;10826;52.536;13.432;2022-11-03T13:14:08;17.40;38.70
21335;DHT22;10826;52.536;13.432;2022-11-03T13:16:34;17.40;38.80
21335;DHT22;10826;52.536;13.432;2022-11-03T13:19:00;17.50;38.80
21335;DHT22;10826;52.536;13.432;2022-11-03T13:21:26;17.50;38.80
21335;DHT22;10826;52.536;13.432;2022-11-03T13:23:52;17.50;38.80
21335;DHT22;10826;52.536;13.432;2022-11-03T13:26:18;17.60;38.80
21335;DHT22;10826;52.536;13.432;2022-11-03T13:28:44;17.50;38.70
21335;DHT22;10826;52.536;13.432;2022-11-03T13:31:10;17.60;38.80
21335;DHT22;10826;52.536;13.432;2022-11-03T13:33:37;17.50;38.90
21335;DHT22;10826;52.536;13.432;2022-11-03T13:36:03;17.50;39.00
21335;DHT22;10826;52.536;13.432;2022-11-03T13:38:29;17.50;39.10
21335;DHT22;10826;52.536;13.432;2022-11-03T13:40:55;17.50;39.20
21335;DHT22;10826;52.536;13.432;2022-11-03T13:43:21;17.50;39.30
21335;DHT22;10826;52.536;13.432;2022-11-03T13:45:47;17.50;39.30
21335;DHT22;10826;52.536;13.432;2022-11-03T13:48:13;17.50;39.40
21335;DHT22;10826;52.536;13.432;2022-11-03T13:50:38;17.40;39.40
21335;DHT22;10826;52.536;13.432;2022-11-03T13:53:05;17.50;39.60
21335;DHT22;10826;52.536;13.432;2022-11-03T13:55:31;17.40;39.50
21335;DHT22;10826;52.536;13.432;2022-11-03T13:57:57;17.40;39.60
21335;DHT22;10826;52.536;13.432;2022-11-03T14:00:23;17.40;39.60
21335;DHT22;10826;52.536;13.432;2022-11-03T14:02:49;17.40;39.70
21335;DHT22;10826;52.536;13.432;2022-11-03T14:05:15;17.30;39.80
21335;DHT22;10826;52.536;13.432;2022-11-03T14:07:42;17.40;39.80
21335;DHT22;10826;52.536;13.432;2022-11-03T14:10:08;17.30;40.10
21335;DHT22;10826;52.536;13.432;2022-11-03T14:12:34;17.20;40.10
21335;DHT22;10826;52.536;13.432;2022-11-03T14:15:04;17.20;40.30
21335;DHT22;10826;52.536;13.432;2022-11-03T14:17:34;17.20;40.40
21335;DHT22;10826;52.536;13.432;2022-11-03T14:20:00;17.10;40.50
21335;DHT22;10826;52.536;13.432;2022-11-03T14:22:27;17.10;40.80
21335;DHT22;10826;52.536;13.432;2022-11-03T14:24:55;17.00;40.80
21335;DHT22;10826;52.536;13.432;2022-11-03T14:27:21;17.00;40.90
21335;DHT22;10826;52.536;13.432;2022-11-03T14:29:47;17.00;41.00
21335;DHT22;10826;52.536;13.432;2022-11-03T14:32:17;17.00;41.10
21335;DHT22;10826;52.536;13.432;2022-11-03T14:34:43;16.90;41.20
21335;DHT22;10826;52.536;13.432;2022-11-03T14:37:10;16.90;41.30
21335;DHT22;10826;52.536;13.432;2022-11-03T14:39:37;16.90;41.20
21335;DHT22;10826;52.536;13.432;2022-11-03T14:42:05;16.80;41.10
21335;DHT22;10826;52.536;13.432;2022-11-03T14:44:37;16.80;41.10
21335;DHT22;10826;52.536;13.432;2022-11-03T14:47:06;16.80;41.10
21335;DHT22;10826;52.536;13.432;2022-11-03T14:49:34;16.70;41.10
21335;DHT22;10826;52.536;13.432;2022-11-03T14:52:01;16.70;41.20
21335;DHT22;10826;52.536;13.432;2022-11-03T14:54:29;16.70;41.20
21335;DHT22;10826;52.536;13.432;2022-11-03T14:56:56;16.70;41.40
21335;DHT22;10826;52.536;13.432;2022-11-03T14:59:24;16.60;41.40
21335;DHT22;10826;52.536;13.432;2022-11-03T15:01:51;16.50;41.60
21335;DHT22;10826;52.536;13.432;2022-11-03T15:04:19;16.50;41.80
21335;DHT22;10826;52.536;13.432;2022-11-03T15:06:46;16.50;41.90
21335;DHT22;10826;52.536;13.432;2022-11-03T15:09:13;16.40;42.00
21335;DHT22;10826;52.536;13.432;2022-11-03T15:11:40;16.40;42.10
21335;DHT22;10826;52.536;13.432;2022-11-03T15:14:06;16.30;42.30
21335;DHT22;10826;52.536;13.432;2022-11-03T15:16:33;16.30;42.50
21335;DHT22;10826;52.536;13.432;2022-11-03T15:19:01;16.30;42.60
21335;DHT22;10826;52.536;13.432;2022-11-03T15:21:30;16.20;42.70
21335;DHT22;10826;52.536;13.432;2022-11-03T15:23:57;16.20;42.70
21335;DHT22;10826;52.536;13.432;2022-11-03T15:26:23;16.20;42.90
21335;DHT22;10826;52.536;13.432;2022-11-03T15:28:49;16.20;42.90
21335;DHT22;10826;52.536;13.432;2022-11-03T15:31:15;16.10;43.10
21335;DHT22;10826;52.536;13.432;2022-11-03T15:33:40;16.10;43.20
21335;DHT22;10826;52.536;13.432;2022-11-03T15:36:32;16.10;43.30
21335;DHT22;10826;52.536;13.432;2022-11-03T15:38:57;16.10;43.40
21335;DHT22;10826;52.536;13.432;2022-11-03T15:41:23;16.00;43.50
21335;DHT22;10826;52.536;13.432;2022-11-03T15:43:49;16.00;43.60
21335;DHT22;10826;52.536;13.432;2022-11-03T15:46:16;15.90;43.70
21335;DHT22;10826;52.536;13.432;2022-11-03T15:48:44;15.90;43.80
21335;DHT22;10826;52.536;13.432;2022-11-03T15:51:10;15.90;43.90
21335;DHT22;10826;52.536;13.432;2022-11-03T15:53:37;15.80;44.00
21335;DHT22;10826;52.536;13.432;2022-11-03T15:56:03;15.70;44.00
21335;DHT22;10826;52.536;13.432;2022-11-03T15:58:29;15.70;44.10
21335;DHT22;10826;52.536;13.432;2022-11-03T16:01:02;15.70;44.20
21335;DHT22;10826;52.536;13.432;2022-11-03T16:03:29;15.70;44.20
21335;DHT22;10826;52.536;13.432;2022-11-03T16:05:56;15.70;44.30
21335;DHT22;10826;52.536;13.432;2022-11-03T16:08:22;15.60;44.40
21335;DHT22;10826;52.536;13.432;2022-11-03T16:10:48;15.60;44.40
21335;DHT22;10826;52.536;13.432;2022-11-03T16:13:13;15.60;44.50
21335;DHT22;10826;52.536;13.432;2022-11-03T16:15:39;15.60;44.70
21335;DHT22;10826;52.536;13.432;2022-11-03T16:18:05;15.60;44.70
21335;DHT22;10826;52.536;13.432;2022-11-03T16:20:31;15.50;44.70
21335;DHT22;10826;52.536;13.432;2022-11-03T16:22:57;15.50;44.70
21335;DHT22;10826;52.536;13.432;2022-11-03T16:25:23;15.60;44.70
21335;DHT22;10826;52.536;13.432;2022-11-03T16:27:49;15.50;44.70
21335;DHT22;10826;52.536;13.432;2022-11-03T16:30:15;15.60;44.80
21335;DHT22;10826;52.536;13.432;2022-11-03T16:32:41;15.50;44.70
21335;DHT22;10826;52.536;13.432;2022-11-03T16:35:07;15.50;44.70
21335;DHT22;10826;52.536;13.432;2022-11-03T16:37:32;15.50;44.70
21335;DHT22;10826;52.536;13.432;2022-11-03T16:39:58;15.50;44.80
21335;DHT22;10826;52.536;13.432;2022-11-03T16:42:24;15.50;44.80
21335;DHT22;10826;52.536;13.432;2022-11-03T16:44:50;15.50;44.90
21335;DHT22;10826;52.536;13.432;2022-11-03T16:47:15;15.50;44.90
21335;DHT22;10826;52.536;13.432;2022-11-03T16:49:41;15.50;44.90
21335;DHT22;10826;52.536;13.432;2022-11-03T16:52:07;15.50;44.90
21335;DHT22;10826;52.536;13.432;2022-11-03T16:54:34;15.40;44.80
21335;DHT22;10826;52.536;13.432;2022-11-03T16:56:59;15.40;44.80
21335;DHT22;10826;52.536;13.432;2022-11-03T16:59:25;15.40;44.80